sensor_id;sensor_type;location;lat;lon;timestamp;pressure;altitude;pressure_sealevel;temperature;humidity
67803;BME280;54601;51.378;-1.342;2023-01-31T00:00:45;101368.22;;;19.17;27.78
67803;BME280;54601;51.378;-1.342;2023-01-31T00:03:10;101369.51;;;19.17;27.68
67803;BME280;54601;51.378;-1.342;2023-01-31T00:05:35;101364.52;;;19.01;27.68
67803;BME280;54601;51.378;-1.342;2023-01-31T00:08:01;101352.21;;;19.02;27.63
67803;BME280;54601;51.378;-1.342;2023-01-31T00:10:26;101346.13;;;19.10;27.52
67803;BME280;54601;51.378;-1.342;2023-01-31T00:12:51;101347.29;;;19.20;27.40
67803;BME280;54601;51.378;-1.342;2023-01-31T00:15:16;101353.67;;;19.38;27.41
67803;BME280;54601;51.378;-1.342;2023-01-31T00:17:41;101348.38;;;19.24;27.58
67803;BME280;54601;51.378;-1.342;2023-01-31T00:20:08;101337.14;;;19.03;27.60
67803;BME280;54601;51.378;-1.342;2023-01-31T00:22:31;101345.49;;;19.36;27.42
67803;BME280;54601;51.378;-1.342;2023-01-31T00:24:57;101344.44;;;19.05;27.51
67803;BME280;54601;51.378;-1.342;2023-01-31T00:27:22;101343.78;;;19.05;27.50
67803;BME280;54601;51.378;-1.342;2023-01-31T00:29:47;101338.91;;;19.08;27.52
67803;BME280;54601;51.378;-1.342;2023-01-31T00:32:12;101330.04;;;19.06;27.49
67803;BME280;54601;51.378;-1.342;2023-01-31T00:34:37;101326.60;;;19.24;27.24
67803;BME280;54601;51.378;-1.342;2023-01-31T00:37:02;101325.70;;;19.12;27.42
67803;BME280;54601;51.378;-1.342;2023-01-31T00:39:28;101318.31;;;19.35;27.42
67803;BME280;54601;51.378;-1.342;2023-01-31T00:41:53;101319.76;;;19.30;27.21
67803;BME280;54601;51.378;-1.342;2023-01-31T00:44:18;101313.07;;;19.48;27.24
67803;BME280;54601;51.378;-1.342;2023-01-31T00:46:43;101313.30;;;19.29;27.23
67803;BME280;54601;51.378;-1.342;2023-01-31T00:49:08;101318.59;;;19.29;27.22
67803;BME280;54601;51.378;-1.342;2023-01-31T00:51:33;101324.11;;;19.35;27.16
67803;BME280;54601;51.378;-1.342;2023-01-31T00:53:58;101316.54;;;19.48;26.99
67803;BME280;54601;51.378;-1.342;2023-01-31T00:56:24;101311.35;;;19.53;27.19
67803;BME280;54601;51.378;-1.342;2023-01-31T00:58:49;101303.04;;;19.27;27.21
67803;BME280;54601;51.378;-1.342;2023-01-31T01:01:16;101304.09;;;19.14;27.13
67803;BME280;54601;51.378;-1.342;2023-01-31T01:03:40;101312.12;;;19.43;27.25
67803;BME280;54601;51.378;-1.342;2023-01-31T01:06:05;101313.45;;;19.21;27.22
67803;BME280;54601;51.378;-1.342;2023-01-31T01:08:30;101308.68;;;19.20;27.25
67803;BME280;54601;51.378;-1.342;2023-01-31T01:10:54;101301.74;;;19.28;27.15
67803;BME280;54601;51.378;-1.342;2023-01-31T01:13:20;101299.96;;;19.14;27.29
67803;BME280;54601;51.378;-1.342;2023-01-31T01:15:45;101297.75;;;19.48;27.15
67803;BME280;54601;51.378;-1.342;2023-01-31T01:18:10;101299.65;;;19.15;27.26
67803;BME280;54601;51.378;-1.342;2023-01-31T01:20:35;101297.83;;;19.09;27.33
67803;BME280;54601;51.378;-1.342;2023-01-31T01:23:01;101293.47;;;19.16;27.24
67803;BME280;54601;51.378;-1.342;2023-01-31T01:25:25;101287.13;;;19.27;27.11
67803;BME280;54601;51.378;-1.342;2023-01-31T01:27:51;101281.24;;;19.20;27.16
67803;BME280;54601;51.378;-1.342;2023-01-31T01:30:16;101277.21;;;19.29;27.06
67803;BME280;54601;51.378;-1.342;2023-01-31T01:32:41;101278.61;;;19.28;27.08
67803;BME280;54601;51.378;-1.342;2023-01-31T01:35:07;101282.03;;;19.28;27.29
67803;BME280;54601;51.378;-1.342;2023-01-31T01:37:32;101275.14;;;19.15;27.24
67803;BME280;54601;51.378;-1.342;2023-01-31T01:39:56;101278.37;;;19.12;27.22
67803;BME280;54601;51.378;-1.342;2023-01-31T01:42:23;101274.51;;;19.03;27.27
67803;BME280;54601;51.378;-1.342;2023-01-31T01:44:49;101276.10;;;19.00;27.32
67803;BME280;54601;51.378;-1.342;2023-01-31T01:47:17;101268.47;;;19.42;27.13
67803;BME280;54601;51.378;-1.342;2023-01-31T01:49:37;101268.18;;;19.26;27.07
67803;BME280;54601;51.378;-1.342;2023-01-31T01:52:05;101262.75;;;19.07;27.23
67803;BME280;54601;51.378;-1.342;2023-01-31T01:54:32;101267.87;;;19.17;27.15
67803;BME280;54601;51.378;-1.342;2023-01-31T01:56:55;101263.99;;;19.30;27.01
67803;BME280;54601;51.378;-1.342;2023-01-31T01:59:20;101263.24;;;19.36;26.99
67803;BME280;54601;51.378;-1.342;2023-01-31T02:01:44;101268.57;;;19.17;26.94
67803;BME280;54601;51.378;-1.342;2023-01-31T02:04:12;101268.67;;;19.44;26.86
67803;BME280;54601;51.378;-1.342;2023-01-31T02:06:33;101266.90;;;19.43;26.87
67803;BME280;54601;51.378;-1.342;2023-01-31T02:08:58;101262.16;;;19.25;27.05
67803;BME280;54601;51.378;-1.342;2023-01-31T02:11:24;101258.47;;;19.21;27.04
67803;BME280;54601;51.378;-1.342;2023-01-31T02:13:51;101256.29;;;19.22;27.07
67803;BME280;54601;51.378;-1.342;2023-01-31T02:16:14;101258.84;;;18.91;27.38
67803;BME280;54601;51.378;-1.342;2023-01-31T02:18:39;101257.34;;;18.97;27.31
67803;BME280;54601;51.378;-1.342;2023-01-31T02:21:18;101254.07;;;19.02;27.19
67803;BME280;54601;51.378;-1.342;2023-01-31T02:23:51;101253.27;;;19.14;27.11
67803;BME280;54601;51.378;-1.342;2023-01-31T02:28:39;101245.33;;;19.28;27.18
67803;BME280;54601;51.378;-1.342;2023-01-31T02:33:15;101243.33;;;18.98;27.19
67803;BME280;54601;51.378;-1.342;2023-01-31T02:35:45;101248.04;;;19.13;27.10
67803;BME280;54601;51.378;-1.342;2023-01-31T02:38:07;101249.40;;;19.27;27.14
67803;BME280;54601;51.378;-1.342;2023-01-31T02:40:31;101249.08;;;19.20;27.26
67803;BME280;54601;51.378;-1.342;2023-01-31T02:42:56;101249.02;;;19.18;27.24
67803;BME280;54601;51.378;-1.342;2023-01-31T02:45:19;101236.65;;;18.90;27.27
67803;BME280;54601;51.378;-1.342;2023-01-31T02:47:50;101234.79;;;18.92;27.19
67803;BME280;54601;51.378;-1.342;2023-01-31T02:50:12;101240.80;;;18.99;27.19
67803;BME280;54601;51.378;-1.342;2023-01-31T02:52:34;101244.54;;;18.59;27.71
67803;BME280;54601;51.378;-1.342;2023-01-31T02:55:03;101243.34;;;18.97;27.38
67803;BME280;54601;51.378;-1.342;2023-01-31T02:57:21;101248.98;;;18.56;27.59
67803;BME280;54601;51.378;-1.342;2023-01-31T02:59:46;101245.38;;;18.92;27.45
67803;BME280;54601;51.378;-1.342;2023-01-31T03:02:12;101242.75;;;18.80;27.31
67803;BME280;54601;51.378;-1.342;2023-01-31T03:04:36;101245.03;;;19.13;27.25
67803;BME280;54601;51.378;-1.342;2023-01-31T03:07:05;101240.87;;;19.07;27.26
67803;BME280;54601;51.378;-1.342;2023-01-31T03:09:34;101235.19;;;18.93;27.21
67803;BME280;54601;51.378;-1.342;2023-01-31T03:11:59;101227.35;;;18.79;27.54
67803;BME280;54601;51.378;-1.342;2023-01-31T03:14:23;101225.75;;;18.83;27.44
67803;BME280;54601;51.378;-1.342;2023-01-31T03:16:49;101221.77;;;18.68;27.43
67803;BME280;54601;51.378;-1.342;2023-01-31T03:19:13;101217.92;;;18.81;27.31
67803;BME280;54601;51.378;-1.342;2023-01-31T03:21:36;101220.44;;;18.44;27.65
67803;BME280;54601;51.378;-1.342;2023-01-31T03:23:58;101221.63;;;19.02;27.31
67803;BME280;54601;51.378;-1.342;2023-01-31T03:26:24;101212.88;;;18.98;27.34
67803;BME280;54601;51.378;-1.342;2023-01-31T03:28:48;101207.54;;;18.85;27.28
67803;BME280;54601;51.378;-1.342;2023-01-31T03:31:16;101204.02;;;18.90;27.23
67803;BME280;54601;51.378;-1.342;2023-01-31T03:33:41;101203.99;;;18.81;27.31
67803;BME280;54601;51.378;-1.342;2023-01-31T03:36:11;101203.08;;;18.42;27.70
67803;BME280;54601;51.378;-1.342;2023-01-31T03:38:33;101196.36;;;18.79;27.35
67803;BME280;54601;51.378;-1.342;2023-01-31T03:40:56;101197.10;;;18.55;27.59
67803;BME280;54601;51.378;-1.342;2023-01-31T03:43:25;101194.86;;;18.69;27.47
67803;BME280;54601;51.378;-1.342;2023-01-31T03:45:47;101191.33;;;18.70;27.42
67803;BME280;54601;51.378;-1.342;2023-01-31T03:48:10;101188.92;;;18.94;27.41
67803;BME280;54601;51.378;-1.342;2023-01-31T03:50:38;101183.93;;;19.22;27.17
67803;BME280;54601;51.378;-1.342;2023-01-31T03:53:05;101193.86;;;18.45;27.67
67803;BME280;54601;51.378;-1.342;2023-01-31T03:55:30;101195.76;;;18.77;27.39
67803;BME280;54601;51.378;-1.342;2023-01-31T03:57:53;101190.98;;;18.97;27.38
67803;BME280;54601;51.378;-1.342;2023-01-31T04:00:18;101183.31;;;18.37;27.76
67803;BME280;54601;51.378;-1.342;2023-01-31T04:02:41;101182.84;;;18.50;27.57
67803;BME280;54601;51.378;-1.342;2023-01-31T04:05:09;101177.59;;;18.87;27.49
67803;BME280;54601;51.378;-1.342;2023-01-31T04:07:31;101175.99;;;18.31;27.77
67803;BME280;54601;51.378;-1.342;2023-01-31T04:09:56;101178.05;;;18.77;27.35
67803;BME280;54601;51.378;-1.342;2023-01-31T04:12:21;101183.30;;;18.87;27.48
67803;BME280;54601;51.378;-1.342;2023-01-31T04:14:47;101183.82;;;18.37;27.70
67803;BME280;54601;51.378;-1.342;2023-01-31T04:17:12;101180.30;;;18.46;27.87
67803;BME280;54601;51.378;-1.342;2023-01-31T04:19:37;101187.37;;;18.31;28.00
67803;BME280;54601;51.378;-1.342;2023-01-31T04:22:02;101185.47;;;18.79;27.53
67803;BME280;54601;51.378;-1.342;2023-01-31T04:24:27;101185.53;;;18.75;27.61
67803;BME280;54601;51.378;-1.342;2023-01-31T04:26:52;101193.48;;;18.66;27.70
67803;BME280;54601;51.378;-1.342;2023-01-31T04:29:18;101201.25;;;18.80;27.81
67803;BME280;54601;51.378;-1.342;2023-01-31T04:31:43;101199.52;;;18.57;27.70
67803;BME280;54601;51.378;-1.342;2023-01-31T04:34:08;101199.50;;;18.76;27.59
67803;BME280;54601;51.378;-1.342;2023-01-31T04:36:33;101201.01;;;18.14;28.09
67803;BME280;54601;51.378;-1.342;2023-01-31T04:38:59;101198.92;;;18.88;27.47
67803;BME280;54601;51.378;-1.342;2023-01-31T04:41:24;101195.56;;;18.17;27.98
67803;BME280;54601;51.378;-1.342;2023-01-31T04:43:49;101179.25;;;18.55;27.78
67803;BME280;54601;51.378;-1.342;2023-01-31T04:46:14;101174.23;;;18.64;27.95
67803;BME280;54601;51.378;-1.342;2023-01-31T04:48:39;101178.43;;;18.63;27.50
67803;BME280;54601;51.378;-1.342;2023-01-31T04:51:04;101168.56;;;18.19;27.93
67803;BME280;54601;51.378;-1.342;2023-01-31T04:53:30;101173.59;;;18.36;27.71
67803;BME280;54601;51.378;-1.342;2023-01-31T04:55:55;101174.68;;;18.18;27.92
67803;BME280;54601;51.378;-1.342;2023-01-31T04:58:20;101184.45;;;18.29;28.02
67803;BME280;54601;51.378;-1.342;2023-01-31T05:00:45;101186.02;;;18.17;28.12
67803;BME280;54601;51.378;-1.342;2023-01-31T05:03:10;101183.88;;;19.04;27.60
67803;BME280;54601;51.378;-1.342;2023-01-31T05:05:36;101185.58;;;18.48;27.81
67803;BME280;54601;51.378;-1.342;2023-01-31T05:08:01;101183.00;;;18.45;27.85
67803;BME280;54601;51.378;-1.342;2023-01-31T05:10:26;101186.75;;;18.28;28.02
67803;BME280;54601;51.378;-1.342;2023-01-31T05:12:51;101187.62;;;17.87;28.23
67803;BME280;54601;51.378;-1.342;2023-01-31T05:15:17;101189.16;;;18.48;27.82
67803;BME280;54601;51.378;-1.342;2023-01-31T05:17:42;101190.21;;;18.11;27.95
67803;BME280;54601;51.378;-1.342;2023-01-31T05:20:08;101184.14;;;18.36;27.92
67803;BME280;54601;51.378;-1.342;2023-01-31T05:22:32;101177.26;;;17.89;28.25
67803;BME280;54601;51.378;-1.342;2023-01-31T05:24:57;101170.49;;;18.31;28.01
67803;BME280;54601;51.378;-1.342;2023-01-31T05:27:23;101163.62;;;18.08;28.17
67803;BME280;54601;51.378;-1.342;2023-01-31T05:29:47;101160.73;;;18.47;27.85
67803;BME280;54601;51.378;-1.342;2023-01-31T05:32:13;101163.39;;;18.25;28.08
67803;BME280;54601;51.378;-1.342;2023-01-31T05:34:38;101172.01;;;18.50;27.73
67803;BME280;54601;51.378;-1.342;2023-01-31T05:37:03;101159.70;;;18.01;28.24
67803;BME280;54601;51.378;-1.342;2023-01-31T05:39:28;101151.54;;;17.87;28.22
67803;BME280;54601;51.378;-1.342;2023-01-31T05:41:54;101137.60;;;18.01;28.05
67803;BME280;54601;51.378;-1.342;2023-01-31T05:44:19;101135.13;;;17.86;28.19
67803;BME280;54601;51.378;-1.342;2023-01-31T05:46:44;101117.89;;;17.82;28.22
67803;BME280;54601;51.378;-1.342;2023-01-31T05:49:11;101119.94;;;18.35;28.19
67803;BME280;54601;51.378;-1.342;2023-01-31T05:51:34;101124.99;;;18.44;27.80
67803;BME280;54601;51.378;-1.342;2023-01-31T05:53:59;101120.20;;;18.00;28.03
67803;BME280;54601;51.378;-1.342;2023-01-31T05:56:24;101114.52;;;18.09;28.15
67803;BME280;54601;51.378;-1.342;2023-01-31T05:58:50;101113.61;;;18.24;27.99
67803;BME280;54601;51.378;-1.342;2023-01-31T06:01:15;101121.89;;;18.05;28.17
67803;BME280;54601;51.378;-1.342;2023-01-31T06:03:40;101121.98;;;18.02;28.22
67803;BME280;54601;51.378;-1.342;2023-01-31T06:06:05;101118.05;;;17.89;28.30
67803;BME280;54601;51.378;-1.342;2023-01-31T06:08:30;101106.16;;;17.94;28.05
67803;BME280;54601;51.378;-1.342;2023-01-31T06:10:55;101103.13;;;18.05;28.19
67803;BME280;54601;51.378;-1.342;2023-01-31T06:13:20;101107.71;;;17.96;28.27
67803;BME280;54601;51.378;-1.342;2023-01-31T06:15:45;101111.35;;;17.95;28.27
67803;BME280;54601;51.378;-1.342;2023-01-31T06:18:11;101115.25;;;17.75;28.27
67803;BME280;54601;51.378;-1.342;2023-01-31T06:20:36;101113.02;;;17.89;28.29
67803;BME280;54601;51.378;-1.342;2023-01-31T06:23:01;101112.74;;;17.89;28.39
67803;BME280;54601;51.378;-1.342;2023-01-31T06:25:26;101104.56;;;18.31;27.93
67803;BME280;54601;51.378;-1.342;2023-01-31T06:27:51;101107.72;;;17.84;28.37
67803;BME280;54601;51.378;-1.342;2023-01-31T06:30:17;101105.86;;;18.07;28.18
67803;BME280;54601;51.378;-1.342;2023-01-31T06:32:41;101102.25;;;18.05;28.18
67803;BME280;54601;51.378;-1.342;2023-01-31T06:35:07;101105.10;;;18.26;28.28
67803;BME280;54601;51.378;-1.342;2023-01-31T06:37:32;101094.47;;;17.86;28.41
67803;BME280;54601;51.378;-1.342;2023-01-31T06:39:57;101097.57;;;17.98;28.26
67803;BME280;54601;51.378;-1.342;2023-01-31T06:42:22;101088.42;;;17.98;28.25
67803;BME280;54601;51.378;-1.342;2023-01-31T06:44:47;101095.56;;;17.87;28.38
67803;BME280;54601;51.378;-1.342;2023-01-31T06:47:12;101090.08;;;18.01;28.21
67803;BME280;54601;51.378;-1.342;2023-01-31T06:49:38;101085.63;;;17.83;28.39
67803;BME280;54601;51.378;-1.342;2023-01-31T06:52:03;101084.76;;;18.10;28.40
67803;BME280;54601;51.378;-1.342;2023-01-31T06:54:28;101078.31;;;17.87;28.37
67803;BME280;54601;51.378;-1.342;2023-01-31T06:56:53;101073.33;;;18.01;28.47
67803;BME280;54601;51.378;-1.342;2023-01-31T06:59:18;101072.30;;;17.80;28.39
67803;BME280;54601;51.378;-1.342;2023-01-31T07:01:44;101072.12;;;18.06;28.40
67803;BME280;54601;51.378;-1.342;2023-01-31T07:04:09;101064.65;;;18.03;28.43
67803;BME280;54601;51.378;-1.342;2023-01-31T07:06:34;101058.85;;;17.70;28.52
67803;BME280;54601;51.378;-1.342;2023-01-31T07:08:59;101061.11;;;17.84;28.64
67803;BME280;54601;51.378;-1.342;2023-01-31T07:11:24;101065.72;;;17.69;28.54
67803;BME280;54601;51.378;-1.342;2023-01-31T07:13:50;101064.16;;;18.00;28.47
67803;BME280;54601;51.378;-1.342;2023-01-31T07:16:15;101075.49;;;17.70;28.76
67803;BME280;54601;51.378;-1.342;2023-01-31T07:18:40;101069.64;;;17.82;28.65
67803;BME280;54601;51.378;-1.342;2023-01-31T07:21:05;101070.60;;;18.01;28.45
67803;BME280;54601;51.378;-1.342;2023-01-31T07:23:31;101072.89;;;17.54;28.98
67803;BME280;54601;51.378;-1.342;2023-01-31T07:25:56;101071.02;;;17.65;28.57
67803;BME280;54601;51.378;-1.342;2023-01-31T07:28:21;101066.31;;;17.57;28.66
67803;BME280;54601;51.378;-1.342;2023-01-31T07:30:46;101064.66;;;17.85;28.64
67803;BME280;54601;51.378;-1.342;2023-01-31T07:33:11;101060.05;;;17.58;28.66
67803;BME280;54601;51.378;-1.342;2023-01-31T07:35:37;101061.41;;;17.68;28.55
67803;BME280;54601;51.378;-1.342;2023-01-31T07:38:02;101062.37;;;17.61;28.63
67803;BME280;54601;51.378;-1.342;2023-01-31T07:40:27;101069.31;;;16.96;29.29
67803;BME280;54601;51.378;-1.342;2023-01-31T07:42:57;101077.62;;;17.58;28.97
67803;BME280;54601;51.378;-1.342;2023-01-31T07:45:18;101086.01;;;17.49;28.78
67803;BME280;54601;51.378;-1.342;2023-01-31T07:47:43;101091.72;;;17.86;28.67
67803;BME280;54601;51.378;-1.342;2023-01-31T07:50:09;101091.44;;;17.53;28.76
67803;BME280;54601;51.378;-1.342;2023-01-31T07:52:33;101092.15;;;17.67;28.60
67803;BME280;54601;51.378;-1.342;2023-01-31T07:54:59;101094.56;;;17.78;28.77
67803;BME280;54601;51.378;-1.342;2023-01-31T07:57:24;101090.16;;;17.71;28.84
67803;BME280;54601;51.378;-1.342;2023-01-31T07:59:49;101089.70;;;17.58;28.72
67803;BME280;54601;51.378;-1.342;2023-01-31T08:02:15;101086.30;;;17.80;28.76
67803;BME280;54601;51.378;-1.342;2023-01-31T08:04:39;101085.74;;;17.52;28.79
67803;BME280;54601;51.378;-1.342;2023-01-31T08:07:05;101089.47;;;17.86;28.72
67803;BME280;54601;51.378;-1.342;2023-01-31T08:09:30;101085.07;;;17.42;28.93
67803;BME280;54601;51.378;-1.342;2023-01-31T08:11:55;101070.40;;;17.97;28.42
67803;BME280;54601;51.378;-1.342;2023-01-31T08:14:20;101070.33;;;17.81;28.85
67803;BME280;54601;51.378;-1.342;2023-01-31T08:16:46;101060.71;;;17.75;28.92
67803;BME280;54601;51.378;-1.342;2023-01-31T08:19:11;101062.52;;;17.52;28.90
67803;BME280;54601;51.378;-1.342;2023-01-31T08:21:36;101055.08;;;17.70;29.01
67803;BME280;54601;51.378;-1.342;2023-01-31T08:24:02;101058.47;;;17.73;28.97
67803;BME280;54601;51.378;-1.342;2023-01-31T08:26:27;101045.65;;;17.66;29.06
67803;BME280;54601;51.378;-1.342;2023-01-31T08:28:53;101044.92;;;17.66;29.09
67803;BME280;54601;51.378;-1.342;2023-01-31T08:31:20;101058.80;;;17.76;28.99
67803;BME280;54601;51.378;-1.342;2023-01-31T08:33:42;101062.64;;;17.35;29.15
67803;BME280;54601;51.378;-1.342;2023-01-31T08:36:09;101055.07;;;17.69;29.08
67803;BME280;54601;51.378;-1.342;2023-01-31T08:38:33;101050.83;;;17.73;29.09
67803;BME280;54601;51.378;-1.342;2023-01-31T08:40:58;101049.35;;;17.69;29.12
67803;BME280;54601;51.378;-1.342;2023-01-31T08:43:23;101049.42;;;17.74;29.10
67803;BME280;54601;51.378;-1.342;2023-01-31T08:45:49;101060.78;;;17.47;29.38
67803;BME280;54601;51.378;-1.342;2023-01-31T08:48:14;101052.27;;;17.60;29.01
67803;BME280;54601;51.378;-1.342;2023-01-31T08:50:39;101047.51;;;17.73;29.13
67803;BME280;54601;51.378;-1.342;2023-01-31T08:53:04;101058.25;;;17.67;29.26
67803;BME280;54601;51.378;-1.342;2023-01-31T08:55:33;101053.93;;;17.75;29.17
67803;BME280;54601;51.378;-1.342;2023-01-31T08:57:55;101044.71;;;17.84;29.09
67803;BME280;54601;51.378;-1.342;2023-01-31T09:00:21;101044.50;;;17.76;29.19
67803;BME280;54601;51.378;-1.342;2023-01-31T09:02:50;101044.75;;;17.48;29.23
67803;BME280;54601;51.378;-1.342;2023-01-31T09:05:11;101038.52;;;17.70;29.31
67803;BME280;54601;51.378;-1.342;2023-01-31T09:07:36;101034.78;;;17.55;29.17
67803;BME280;54601;51.378;-1.342;2023-01-31T09:10:02;101037.46;;;17.39;29.46
67803;BME280;54601;51.378;-1.342;2023-01-31T09:12:27;101033.17;;;17.71;29.42
67803;BME280;54601;51.378;-1.342;2023-01-31T09:14:53;101032.34;;;17.75;29.43
67803;BME280;54601;51.378;-1.342;2023-01-31T09:17:18;101033.41;;;17.60;29.61
67803;BME280;54601;51.378;-1.342;2023-01-31T09:19:42;101032.54;;;17.37;29.57
67803;BME280;54601;51.378;-1.342;2023-01-31T09:22:08;101030.60;;;17.51;29.74
67803;BME280;54601;51.378;-1.342;2023-01-31T09:24:33;101034.01;;;17.50;29.78
67803;BME280;54601;51.378;-1.342;2023-01-31T09:26:58;101029.27;;;17.83;29.44
67803;BME280;54601;51.378;-1.342;2023-01-31T09:29:24;101037.64;;;17.18;29.88
67803;BME280;54601;51.378;-1.342;2023-01-31T09:31:50;101039.37;;;17.54;29.49
67803;BME280;54601;51.378;-1.342;2023-01-31T09:34:14;101044.18;;;17.71;29.61
67803;BME280;54601;51.378;-1.342;2023-01-31T09:36:39;101047.43;;;17.66;29.46
67803;BME280;54601;51.378;-1.342;2023-01-31T09:39:05;101057.25;;;17.69;29.41
67803;BME280;54601;51.378;-1.342;2023-01-31T09:41:34;101061.47;;;17.81;29.57
67803;BME280;54601;51.378;-1.342;2023-01-31T09:43:59;101059.72;;;17.58;29.87
67803;BME280;54601;51.378;-1.342;2023-01-31T09:46:25;101071.02;;;17.75;29.66
67803;BME280;54601;51.378;-1.342;2023-01-31T09:48:48;101067.62;;;17.76;29.73
67803;BME280;54601;51.378;-1.342;2023-01-31T09:51:12;101068.57;;;17.41;29.75
67803;BME280;54601;51.378;-1.342;2023-01-31T09:53:37;101072.26;;;17.58;29.92
67803;BME280;54601;51.378;-1.342;2023-01-31T09:56:13;101084.98;;;18.05;29.46
67803;BME280;54601;51.378;-1.342;2023-01-31T09:58:33;101099.73;;;17.88;29.57
67803;BME280;54601;51.378;-1.342;2023-01-31T10:00:58;101106.81;;;17.74;29.51
67803;BME280;54601;51.378;-1.342;2023-01-31T10:03:31;101110.28;;;17.41;29.60
67803;BME280;54601;51.378;-1.342;2023-01-31T10:05:48;101098.12;;;17.87;29.64
67803;BME280;54601;51.378;-1.342;2023-01-31T10:08:14;101106.62;;;17.91;29.59
67803;BME280;54601;51.378;-1.342;2023-01-31T10:10:36;101107.36;;;17.88;29.32
67803;BME280;54601;51.378;-1.342;2023-01-31T10:13:01;101102.67;;;17.80;29.72
67803;BME280;54601;51.378;-1.342;2023-01-31T10:15:29;101101.06;;;17.62;29.67
67803;BME280;54601;51.378;-1.342;2023-01-31T10:17:52;101091.82;;;17.78;29.80
67803;BME280;54601;51.378;-1.342;2023-01-31T10:20:19;101092.46;;;17.82;29.60
67803;BME280;54601;51.378;-1.342;2023-01-31T10:22:43;101093.29;;;17.87;29.57
67803;BME280;54601;51.378;-1.342;2023-01-31T10:25:16;101097.77;;;18.09;29.63
67803;BME280;54601;51.378;-1.342;2023-01-31T10:27:37;101091.52;;;17.76;29.64
67803;BME280;54601;51.378;-1.342;2023-01-31T10:29:56;101092.98;;;17.93;29.78
67803;BME280;54601;51.378;-1.342;2023-01-31T10:32:24;101093.50;;;18.37;29.42
67803;BME280;54601;51.378;-1.342;2023-01-31T10:34:50;101099.68;;;17.74;29.78
67803;BME280;54601;51.378;-1.342;2023-01-31T10:37:14;101097.41;;;18.31;29.24
67803;BME280;54601;51.378;-1.342;2023-01-31T10:39:41;101095.97;;;18.11;29.41
67803;BME280;54601;51.378;-1.342;2023-01-31T10:42:10;101093.72;;;18.32;29.23
67803;BME280;54601;51.378;-1.342;2023-01-31T10:44:35;101092.81;;;18.37;29.43
67803;BME280;54601;51.378;-1.342;2023-01-31T10:46:55;101090.80;;;18.33;29.30
67803;BME280;54601;51.378;-1.342;2023-01-31T10:49:20;101085.86;;;18.11;29.54
67803;BME280;54601;51.378;-1.342;2023-01-31T10:51:54;101087.94;;;17.96;29.72
67803;BME280;54601;51.378;-1.342;2023-01-31T10:54:19;101082.86;;;18.06;29.63
67803;BME280;54601;51.378;-1.342;2023-01-31T10:56:34;101092.41;;;18.01;29.68
67803;BME280;54601;51.378;-1.342;2023-01-31T10:59:00;101100.10;;;18.31;29.66
67803;BME280;54601;51.378;-1.342;2023-01-31T11:01:23;101099.89;;;18.15;29.85
67803;BME280;54601;51.378;-1.342;2023-01-31T11:03:50;101103.61;;;17.95;30.11
67803;BME280;54601;51.378;-1.342;2023-01-31T11:06:14;101098.66;;;17.66;30.20
67803;BME280;54601;51.378;-1.342;2023-01-31T11:08:44;101085.86;;;17.88;30.06
67803;BME280;54601;51.378;-1.342;2023-01-31T11:11:07;101087.81;;;18.17;29.72
67803;BME280;54601;51.378;-1.342;2023-01-31T11:13:29;101094.11;;;18.25;29.91
67803;BME280;54601;51.378;-1.342;2023-01-31T11:15:55;101098.10;;;18.23;29.70
67803;BME280;54601;51.378;-1.342;2023-01-31T11:18:27;101090.64;;;17.94;30.25
67803;BME280;54601;51.378;-1.342;2023-01-31T11:20:46;101087.01;;;17.98;29.92
67803;BME280;54601;51.378;-1.342;2023-01-31T11:23:13;101081.80;;;18.34;29.83
67803;BME280;54601;51.378;-1.342;2023-01-31T11:25:35;101091.43;;;18.02;29.88
67803;BME280;54601;51.378;-1.342;2023-01-31T11:28:04;101091.67;;;18.25;29.96
67803;BME280;54601;51.378;-1.342;2023-01-31T11:30:28;101086.76;;;18.16;29.81
67803;BME280;54601;51.378;-1.342;2023-01-31T11:32:51;101082.81;;;18.12;29.80
67803;BME280;54601;51.378;-1.342;2023-01-31T11:35:22;101083.12;;;18.54;29.66
67803;BME280;54601;51.378;-1.342;2023-01-31T11:37:50;101075.88;;;17.76;30.01
67803;BME280;54601;51.378;-1.342;2023-01-31T11:40:17;101077.56;;;18.62;29.64
67803;BME280;54601;51.378;-1.342;2023-01-31T11:42:32;101072.58;;;18.02;29.93
67803;BME280;54601;51.378;-1.342;2023-01-31T11:44:59;101065.02;;;18.35;29.87
67803;BME280;54601;51.378;-1.342;2023-01-31T11:47:27;101063.99;;;18.27;29.71
67803;BME280;54601;51.378;-1.342;2023-01-31T11:49:48;101056.18;;;18.38;29.62
67803;BME280;54601;51.378;-1.342;2023-01-31T11:52:15;101058.46;;;17.94;29.85
67803;BME280;54601;51.378;-1.342;2023-01-31T11:54:41;101057.98;;;17.79;30.55
67803;BME280;54601;51.378;-1.342;2023-01-31T11:57:12;101056.26;;;18.28;30.06
67803;BME280;54601;51.378;-1.342;2023-01-31T11:59:30;101043.28;;;17.52;30.28
67803;BME280;54601;51.378;-1.342;2023-01-31T12:01:56;101038.18;;;17.89;30.20
67803;BME280;54601;51.378;-1.342;2023-01-31T12:04:22;101038.90;;;18.40;29.91
67803;BME280;54601;51.378;-1.342;2023-01-31T12:09:18;101044.77;;;18.00;30.09
67803;BME280;54601;51.378;-1.342;2023-01-31T12:11:35;101047.58;;;18.06;29.99
67803;BME280;54601;51.378;-1.342;2023-01-31T12:14:02;101043.19;;;18.35;29.96
67803;BME280;54601;51.378;-1.342;2023-01-31T12:16:27;101040.50;;;18.22;30.12
67803;BME280;54601;51.378;-1.342;2023-01-31T12:19:02;101033.78;;;18.30;30.02
67803;BME280;54601;51.378;-1.342;2023-01-31T12:21:26;101033.01;;;18.20;29.85
67803;BME280;54601;51.378;-1.342;2023-01-31T12:23:50;101033.40;;;18.21;29.87
67803;BME280;54601;51.378;-1.342;2023-01-31T12:26:12;101032.00;;;18.44;29.87
67803;BME280;54601;51.378;-1.342;2023-01-31T12:28:45;101041.69;;;18.16;30.18
67803;BME280;54601;51.378;-1.342;2023-01-31T12:31:08;101033.45;;;18.23;29.90
67803;BME280;54601;51.378;-1.342;2023-01-31T12:33:33;101039.61;;;17.95;30.17
67803;BME280;54601;51.378;-1.342;2023-01-31T12:35:56;101035.00;;;18.04;30.06